createdAt,value
2023-01-17T00:01:57.566Z,84.80
2023-01-17T00:04:43.347Z,84.90
2023-01-17T00:07:29.958Z,85.60
2023-01-17T00:09:59.301Z,85.00
2023-01-17T00:12:31.051Z,84.80
2023-01-17T00:14:59.367Z,84.30
2023-01-17T00:17:27.778Z,84.30
2023-01-17T00:20:14.335Z,84.50
2023-01-17T00:23:01.969Z,85.30
2023-01-17T00:25:49.162Z,85.90
2023-01-17T00:28:16.786Z,85.00
2023-01-17T00:30:44.174Z,85.10
2023-01-17T00:33:11.574Z,85.40
2023-01-17T00:35:39.113Z,85.00
2023-01-17T00:38:07.321Z,84.60
2023-01-17T00:40:36.735Z,85.50
2023-01-17T00:43:23.048Z,85.30
2023-01-17T00:46:08.818Z,85.40
2023-01-17T00:48:55.451Z,85.70
2023-01-17T00:51:42.080Z,86.20
2023-01-17T00:57:14.626Z,85.80
2023-01-17T01:00:00.240Z,85.90
2023-01-17T01:02:46.117Z,85.40
2023-01-17T01:11:03.547Z,85.60
2023-01-17T01:13:50.535Z,85.70
2023-01-17T01:16:38.416Z,85.30
2023-01-17T01:19:25.051Z,84.90
2023-01-17T01:22:11.329Z,85.10
2023-01-17T01:24:57.076Z,84.90
2023-01-17T01:27:43.304Z,85.00
2023-01-17T01:30:29.401Z,84.80
2023-01-17T01:33:15.794Z,84.30
2023-01-17T01:35:43.440Z,84.20
2023-01-17T01:38:11.260Z,84.20
2023-01-17T01:40:43.564Z,83.90
2023-01-17T01:43:12.836Z,83.80
2023-01-17T01:45:41.934Z,84.20
2023-01-17T01:48:32.828Z,84.00
2023-01-17T01:51:01.703Z,83.80
2023-01-17T01:53:32.341Z,83.60
2023-01-17T01:56:00.112Z,83.50
2023-01-17T01:58:29.570Z,83.30
2023-01-17T02:00:57.612Z,83.20
2023-01-17T02:03:27.511Z,83.00
2023-01-17T02:05:58.336Z,83.00
2023-01-17T02:08:31.770Z,82.90
2023-01-17T02:10:59.394Z,82.90
2023-01-17T02:13:29.296Z,82.90
2023-01-17T02:16:00.253Z,82.50
2023-01-17T02:18:32.386Z,82.50
2023-01-17T02:21:23.416Z,82.60
2023-01-17T02:24:07.373Z,82.50
2023-01-17T02:26:53.738Z,82.50
2023-01-17T02:29:39.881Z,82.40
2023-01-17T02:32:16.631Z,82.30
2023-01-17T02:34:59.869Z,82.20
2023-01-17T02:37:35.421Z,81.90
2023-01-17T02:40:13.185Z,81.80
2023-01-17T02:43:05.848Z,81.80
2023-01-17T02:45:33.465Z,81.40
2023-01-17T02:48:01.014Z,81.60
2023-01-17T02:50:35.448Z,81.60
2023-01-17T02:53:12.649Z,81.30
2023-01-17T02:56:03.843Z,81.10
2023-01-17T02:59:06.041Z,81.10
2023-01-17T03:01:55.085Z,81.00
2023-01-17T03:04:45.359Z,80.90
2023-01-17T03:10:04.169Z,81.70
2023-01-17T03:14:58.731Z,81.00
2023-01-17T03:17:31.211Z,80.70
2023-01-17T03:20:02.329Z,80.80
2023-01-17T03:22:30.013Z,80.50
2023-01-17T03:24:57.916Z,80.40
2023-01-17T03:27:25.742Z,80.30
2023-01-17T03:29:54.728Z,80.30
2023-01-17T03:32:22.384Z,79.70
2023-01-17T03:34:51.795Z,79.10
2023-01-17T03:37:19.572Z,79.30
2023-01-17T03:39:47.224Z,79.80
2023-01-17T03:42:14.846Z,79.80
2023-01-17T03:47:34.868Z,79.40
2023-01-17T03:50:03.058Z,79.30
2023-01-17T03:52:31.328Z,79.30
2023-01-17T03:54:58.921Z,79.60
2023-01-17T03:57:27.132Z,79.20
2023-01-17T03:59:54.976Z,78.40
2023-01-17T04:02:23.009Z,78.80
2023-01-17T04:04:51.735Z,78.40
2023-01-17T04:07:19.885Z,77.20
2023-01-17T04:09:47.752Z,78.40
2023-01-17T04:12:17.815Z,78.20
2023-01-17T04:14:45.988Z,78.10
2023-01-17T04:17:14.495Z,78.40
2023-01-17T04:19:42.899Z,78.20
2023-01-17T04:22:11.002Z,78.30
2023-01-17T04:24:38.823Z,78.00
2023-01-17T04:27:06.524Z,78.00
2023-01-17T04:29:42.522Z,77.50
2023-01-17T04:32:10.377Z,77.70
2023-01-17T04:34:37.905Z,78.20
2023-01-17T04:37:08.689Z,77.20
2023-01-17T04:39:36.457Z,77.20
2023-01-17T04:42:04.939Z,77.30
2023-01-17T04:44:33.135Z,77.20
2023-01-17T04:47:02.383Z,77.30
2023-01-17T04:49:29.944Z,77.10
2023-01-17T04:51:57.624Z,76.20
2023-01-17T04:54:25.553Z,77.10
2023-01-17T04:56:53.107Z,76.40
2023-01-17T04:59:20.745Z,76.20
2023-01-17T05:01:49.970Z,76.50
2023-01-17T05:04:19.037Z,74.40
2023-01-17T05:06:47.208Z,75.30
2023-01-17T05:11:46.497Z,76.70
2023-01-17T05:14:16.996Z,76.70
2023-01-17T05:16:47.975Z,76.10
2023-01-17T05:19:20.919Z,75.70
2023-01-17T05:21:52.015Z,75.90
2023-01-17T05:24:20.658Z,74.10
2023-01-17T05:26:55.085Z,74.80
2023-01-17T05:29:22.999Z,74.90
2023-01-17T05:31:50.874Z,75.20
2023-01-17T05:34:18.529Z,75.30
2023-01-17T05:36:47.313Z,72.60
2023-01-17T05:39:15.937Z,72.70
2023-01-17T05:41:43.893Z,73.40
2023-01-17T05:44:11.688Z,72.50
2023-01-17T05:46:39.503Z,73.40
2023-01-17T05:49:07.164Z,74.00
2023-01-17T05:51:38.029Z,74.50
2023-01-17T05:54:07.306Z,75.20
2023-01-17T05:56:35.080Z,74.70
2023-01-17T05:59:02.715Z,72.80
2023-01-17T06:01:30.609Z,73.40
2023-01-17T06:03:58.503Z,73.60
2023-01-17T06:06:26.066Z,72.40
2023-01-17T06:09:00.318Z,73.30
2023-01-17T06:11:27.859Z,73.20
2023-01-17T06:13:55.430Z,71.80
2023-01-17T06:16:23.224Z,70.90
2023-01-17T06:18:51.775Z,72.00
2023-01-17T06:21:22.850Z,73.70
2023-01-17T06:23:50.671Z,72.60
2023-01-17T06:26:18.546Z,73.00
2023-01-17T06:28:46.338Z,73.40
2023-01-17T06:31:14.041Z,72.10
2023-01-17T06:33:41.614Z,71.20
2023-01-17T06:36:09.343Z,72.30
2023-01-17T06:38:37.126Z,70.70
2023-01-17T06:41:07.047Z,72.40
2023-01-17T06:43:35.533Z,74.00
2023-01-17T06:46:03.223Z,71.70
2023-01-17T06:48:30.788Z,71.00
2023-01-17T06:50:58.476Z,71.60
2023-01-17T06:53:26.491Z,71.60
2023-01-17T06:55:57.166Z,70.60
2023-01-17T06:58:58.186Z,71.80
2023-01-17T07:01:26.626Z,71.00
2023-01-17T07:03:55.092Z,70.60
2023-01-17T07:06:24.096Z,69.70
2023-01-17T07:08:51.649Z,71.50
2023-01-17T07:11:20.043Z,69.20
2023-01-17T07:13:48.046Z,70.30
2023-01-17T07:16:15.617Z,72.30
2023-01-17T07:18:43.241Z,72.20
2023-01-17T07:21:13.373Z,71.30
2023-01-17T07:23:40.961Z,70.80
2023-01-17T07:26:09.087Z,70.30
2023-01-17T07:28:36.688Z,70.60
2023-01-17T07:31:08.305Z,69.70
2023-01-17T07:33:37.571Z,69.90
2023-01-17T07:36:08.985Z,70.40
2023-01-17T07:38:38.257Z,70.00
2023-01-17T07:41:05.890Z,69.30
2023-01-17T07:43:37.410Z,69.70
2023-01-17T07:46:09.693Z,68.40
2023-01-17T07:48:40.459Z,69.10
2023-01-17T07:51:08.875Z,70.30
2023-01-17T07:53:37.304Z,69.70
2023-01-17T07:56:06.028Z,69.50
2023-01-17T07:58:34.307Z,68.30
2023-01-17T08:01:16.367Z,69.20
2023-01-17T08:03:44.220Z,70.00
2023-01-17T08:06:17.875Z,71.30
2023-01-17T08:08:46.367Z,71.40
2023-01-17T08:11:14.371Z,70.70
2023-01-17T08:13:42.807Z,70.00
2023-01-17T08:16:10.798Z,69.30
2023-01-17T08:18:38.777Z,70.00
2023-01-17T08:21:13.040Z,69.30
2023-01-17T08:23:40.672Z,68.60
2023-01-17T08:26:08.237Z,69.60
2023-01-17T08:28:38.510Z,69.20
2023-01-17T08:31:14.883Z,68.00
2023-01-17T08:33:42.451Z,70.20
2023-01-17T08:36:11.594Z,70.50
2023-01-17T08:38:39.146Z,70.80
2023-01-17T08:41:06.801Z,68.20
2023-01-17T08:43:36.517Z,68.40
2023-01-17T08:46:05.631Z,68.90
2023-01-17T08:48:38.377Z,68.80
2023-01-17T08:51:06.199Z,68.90
2023-01-17T08:53:34.088Z,68.00
2023-01-17T08:56:02.916Z,66.40
2023-01-17T08:58:31.277Z,67.90
2023-01-17T09:01:03.404Z,67.80
2023-01-17T09:03:31.747Z,69.50
2023-01-17T09:06:06.616Z,70.30
2023-01-17T09:08:34.500Z,70.20
2023-01-17T09:11:06.029Z,69.20
2023-01-17T09:13:33.641Z,68.60
2023-01-17T09:16:01.680Z,67.50
2023-01-17T09:18:29.708Z,67.50
2023-01-17T09:20:59.455Z,69.60
2023-01-17T09:23:28.380Z,68.20
2023-01-17T09:25:59.702Z,67.70
2023-01-17T09:28:28.240Z,67.40
2023-01-17T09:30:55.780Z,66.10
2023-01-17T09:33:26.466Z,67.00
2023-01-17T09:35:53.991Z,66.40
2023-01-17T09:38:22.003Z,67.50
2023-01-17T09:40:49.780Z,67.50
2023-01-17T09:43:27.478Z,67.90
2023-01-17T09:45:55.575Z,66.70
2023-01-17T09:48:28.953Z,67.40
2023-01-17T09:51:03.667Z,68.00
2023-01-17T09:53:35.680Z,68.30
2023-01-17T09:56:17.179Z,68.60
2023-01-17T09:59:18.565Z,68.50
2023-01-17T10:02:11.208Z,68.70
2023-01-17T10:04:42.850Z,69.40
2023-01-17T10:07:26.668Z,69.50
2023-01-17T10:10:00.291Z,69.20
2023-01-17T10:12:48.008Z,69.60
2023-01-17T10:15:15.738Z,70.10
2023-01-17T10:17:51.978Z,70.20
2023-01-17T10:20:38.912Z,70.00
2023-01-17T10:23:25.735Z,71.00
2023-01-17T10:25:55.144Z,70.80
2023-01-17T10:28:34.276Z,71.00
2023-01-17T10:31:05.277Z,70.60
2023-01-17T10:33:54.443Z,71.00
2023-01-17T10:36:24.267Z,71.20
2023-01-17T10:38:53.621Z,71.20
2023-01-17T10:41:21.405Z,71.50
2023-01-17T10:43:56.205Z,71.70
2023-01-17T10:46:29.123Z,71.70
2023-01-17T10:48:57.521Z,71.90
2023-01-17T10:51:28.345Z,72.10
2023-01-17T10:54:14.255Z,72.00
2023-01-17T10:56:42.518Z,72.40
2023-01-17T10:59:10.057Z,72.40
2023-01-17T11:01:37.712Z,72.60
2023-01-17T11:04:11.611Z,72.70
2023-01-17T11:06:57.233Z,72.80
2023-01-17T11:09:37.875Z,72.80
2023-01-17T11:12:06.405Z,72.90
2023-01-17T11:14:37.049Z,73.20
2023-01-17T11:17:06.946Z,73.20
2023-01-17T11:19:36.686Z,73.30
2023-01-17T11:22:06.645Z,73.60
2023-01-17T11:24:41.756Z,73.60
2023-01-17T11:27:24.536Z,73.80
2023-01-17T11:30:16.476Z,73.80
2023-01-17T11:33:04.634Z,74.00
2023-01-17T11:35:34.647Z,74.20
2023-01-17T11:38:11.247Z,74.20
2023-01-17T11:40:45.430Z,74.30
2023-01-17T11:43:14.484Z,74.40
2023-01-17T11:45:42.260Z,74.50
2023-01-17T11:48:12.935Z,74.50
2023-01-17T11:50:42.339Z,74.50
2023-01-17T11:53:19.493Z,74.60
2023-01-17T11:55:56.060Z,74.80
2023-01-17T11:58:24.408Z,74.90
2023-01-17T12:01:00.922Z,75.10
2023-01-17T12:03:29.029Z,75.20
2023-01-17T12:06:00.250Z,75.40
2023-01-17T12:08:47.088Z,75.60
2023-01-17T12:11:19.324Z,75.70
2023-01-17T12:14:01.887Z,75.90
2023-01-17T12:16:36.644Z,76.00
2023-01-17T12:19:18.766Z,76.10
2023-01-17T12:21:47.013Z,76.20
2023-01-17T12:24:14.670Z,76.40
2023-01-17T12:27:00.825Z,76.60
2023-01-17T12:29:44.434Z,76.60
2023-01-17T12:32:32.084Z,76.70
2023-01-17T12:35:03.402Z,76.90
2023-01-17T12:37:38.172Z,77.10
2023-01-17T12:40:14.871Z,77.10
2023-01-17T12:42:45.239Z,77.10
2023-01-17T12:45:16.110Z,77.30
2023-01-17T12:47:48.490Z,77.40
2023-01-17T12:50:20.994Z,77.60
2023-01-17T12:52:48.505Z,77.50
2023-01-17T12:55:22.197Z,77.70
2023-01-17T12:57:56.528Z,77.80
2023-01-17T13:00:25.850Z,77.80
2023-01-17T13:02:53.670Z,78.00
2023-01-17T13:05:23.996Z,78.10
2023-01-17T13:07:57.396Z,78.00
2023-01-17T13:10:32.583Z,78.20
2023-01-17T13:13:02.268Z,78.30
2023-01-17T13:15:33.204Z,78.30
2023-01-17T13:18:04.589Z,78.00
2023-01-17T13:20:57.287Z,78.20
2023-01-17T13:23:33.936Z,78.30
2023-01-17T13:26:02.336Z,78.20
2023-01-17T13:28:48.009Z,78.20
2023-01-17T13:31:34.321Z,78.30
2023-01-17T13:34:02.064Z,78.40
2023-01-17T13:36:38.303Z,78.60
2023-01-17T13:39:24.419Z,78.50
2023-01-17T13:41:55.145Z,78.60
2023-01-17T13:44:25.240Z,78.80
2023-01-17T13:47:02.651Z,79.20
2023-01-17T13:49:30.470Z,79.20
2023-01-17T13:52:03.830Z,79.20
2023-01-17T13:54:35.409Z,79.30
2023-01-17T13:57:21.475Z,79.40
2023-01-17T13:59:49.020Z,79.60
2023-01-17T14:02:35.659Z,80.10
2023-01-17T14:05:06.237Z,79.70
2023-01-17T14:07:35.485Z,80.10
2023-01-17T14:10:16.270Z,80.10
2023-01-17T14:12:43.945Z,80.30
2023-01-17T14:15:20.232Z,80.40
2023-01-17T14:17:51.726Z,80.10
2023-01-17T14:20:20.043Z,80.60
2023-01-17T14:22:52.174Z,81.20
2023-01-17T14:25:28.588Z,81.40
2023-01-17T14:27:59.010Z,81.30
2023-01-17T14:30:28.641Z,82.10
2023-01-17T14:32:59.598Z,82.80
2023-01-17T14:35:34.777Z,82.10
2023-01-17T14:38:03.396Z,81.70
2023-01-17T14:40:31.999Z,81.30
2023-01-17T14:43:04.034Z,81.30
2023-01-17T14:45:33.178Z,81.10
2023-01-17T14:48:02.965Z,80.70
2023-01-17T14:50:35.999Z,80.50
2023-01-17T14:53:40.294Z,80.50
2023-01-17T14:56:15.487Z,80.30
2023-01-17T14:58:43.567Z,80.00
2023-01-17T15:01:21.105Z,80.10
2023-01-17T15:03:48.826Z,79.80
2023-01-17T15:06:24.230Z,80.00
2023-01-17T15:08:55.022Z,79.80
2023-01-17T15:11:26.881Z,79.80
2023-01-17T15:13:58.483Z,80.00
2023-01-17T15:16:31.004Z,79.50
2023-01-17T15:18:58.740Z,80.00
2023-01-17T15:21:33.078Z,79.90
2023-01-17T15:24:01.888Z,79.80
2023-01-17T15:26:33.187Z,79.80
2023-01-17T15:29:03.935Z,79.80
2023-01-17T15:31:40.342Z,79.70
2023-01-17T15:34:10.226Z,79.50
2023-01-17T15:36:38.830Z,79.60
2023-01-17T15:39:23.173Z,79.60
2023-01-17T15:41:55.016Z,79.50
2023-01-17T15:44:47.593Z,79.50
2023-01-17T15:47:30.247Z,79.40
2023-01-17T15:49:57.856Z,79.70
2023-01-17T15:52:25.634Z,79.60
2023-01-17T15:54:54.808Z,79.60
2023-01-17T15:57:38.506Z,79.80
2023-01-17T16:00:20.681Z,79.90
2023-01-17T16:02:56.369Z,80.20
2023-01-17T16:05:24.450Z,81.10
2023-01-17T16:08:04.576Z,80.10
2023-01-17T16:10:37.654Z,80.10
2023-01-17T16:13:06.257Z,80.10
2023-01-17T16:15:37.325Z,80.10
2023-01-17T16:18:14.493Z,80.30
2023-01-17T16:20:45.072Z,80.20
2023-01-17T16:23:12.790Z,80.40
2023-01-17T16:25:40.333Z,80.40
2023-01-17T16:28:07.968Z,80.30
2023-01-17T16:30:35.507Z,80.40
2023-01-17T16:33:03.766Z,80.50
2023-01-17T16:35:33.030Z,80.70
2023-01-17T16:38:21.090Z,80.30
2023-01-17T16:40:49.177Z,80.40
2023-01-17T16:43:18.412Z,80.60
2023-01-17T16:45:47.435Z,80.30
2023-01-17T16:48:17.154Z,80.40
2023-01-17T16:50:48.485Z,80.40
2023-01-17T16:53:16.610Z,80.60
2023-01-17T16:55:44.283Z,80.40
2023-01-17T16:58:11.937Z,80.60
2023-01-17T17:00:40.543Z,80.60
2023-01-17T17:03:08.440Z,80.60
2023-01-17T17:05:37.703Z,80.50
2023-01-17T17:08:05.338Z,80.70
2023-01-17T17:10:32.900Z,80.70
2023-01-17T17:13:02.780Z,80.60
2023-01-17T17:15:30.450Z,80.60
2023-01-17T17:17:58.045Z,80.70
2023-01-17T17:20:25.723Z,80.70
2023-01-17T17:22:53.684Z,80.90
2023-01-17T17:25:22.053Z,81.00
2023-01-17T17:27:49.786Z,81.20
2023-01-17T17:30:18.324Z,81.00
2023-01-17T17:32:46.856Z,81.00
2023-01-17T17:35:14.596Z,81.00
2023-01-17T17:37:42.232Z,81.20
2023-01-17T17:40:11.139Z,81.30
2023-01-17T17:42:39.024Z,81.40
2023-01-17T17:45:06.932Z,81.30
2023-01-17T17:47:34.492Z,81.30
2023-01-17T17:50:02.102Z,81.40
2023-01-17T17:52:29.827Z,81.50
2023-01-17T17:54:57.445Z,81.50
2023-01-17T17:57:25.029Z,81.60
2023-01-17T17:59:56.213Z,81.70
2023-01-17T18:02:23.872Z,81.70
2023-01-17T18:04:51.583Z,81.50
2023-01-17T18:07:20.170Z,81.70
2023-01-17T18:09:47.730Z,81.70
2023-01-17T18:12:16.175Z,81.50
2023-01-17T18:14:43.710Z,81.60
2023-01-17T18:17:11.243Z,82.00
2023-01-17T18:19:38.976Z,82.10
2023-01-17T18:22:07.039Z,81.90
2023-01-17T18:24:34.610Z,82.10
2023-01-17T18:27:02.191Z,82.00
2023-01-17T18:29:29.855Z,82.20
2023-01-17T18:31:57.416Z,82.00
2023-01-17T18:34:29.922Z,82.30
2023-01-17T18:36:57.583Z,82.20
2023-01-17T18:39:26.675Z,82.10
2023-01-17T18:41:54.653Z,82.00
2023-01-17T18:44:22.744Z,82.10
2023-01-17T18:46:51.359Z,82.20
2023-01-17T18:49:20.047Z,82.00
2023-01-17T18:51:49.281Z,81.80
2023-01-17T18:54:20.732Z,81.70
2023-01-17T18:56:48.641Z,81.90
2023-01-17T18:59:19.887Z,82.10
2023-01-17T19:01:47.819Z,81.70
2023-01-17T19:04:16.107Z,81.70
2023-01-17T19:06:44.878Z,81.80
2023-01-17T19:09:13.920Z,81.70
2023-01-17T19:11:43.307Z,81.90
2023-01-17T19:14:11.478Z,81.80
2023-01-17T19:16:40.487Z,82.80
2023-01-17T19:19:09.655Z,82.00
2023-01-17T19:21:37.668Z,81.90
2023-01-17T19:24:05.968Z,82.00
2023-01-17T19:26:34.386Z,81.90
2023-01-17T19:29:05.486Z,82.00
2023-01-17T19:31:36.711Z,81.90
2023-01-17T19:34:04.876Z,81.80
2023-01-17T19:36:34.000Z,82.30
2023-01-17T19:39:05.395Z,81.90
2023-01-17T19:41:38.519Z,82.00
2023-01-17T19:44:07.482Z,82.00
2023-01-17T19:46:35.756Z,81.90
2023-01-17T19:49:03.945Z,82.20
2023-01-17T19:51:32.304Z,82.10
2023-01-17T19:54:04.335Z,82.30
2023-01-17T19:56:32.095Z,82.30
2023-01-17T19:59:01.757Z,82.30
2023-01-17T20:01:31.392Z,82.10
2023-01-17T20:04:00.001Z,82.20
2023-01-17T20:06:29.274Z,82.10
2023-01-17T20:08:56.908Z,82.20
2023-01-17T20:11:25.599Z,82.10
2023-01-17T20:13:54.489Z,82.30
2023-01-17T20:16:22.683Z,82.10
2023-01-17T20:18:50.412Z,82.20
2023-01-17T20:21:19.310Z,82.40
2023-01-17T20:23:47.586Z,82.20
2023-01-17T20:26:16.306Z,82.20
2023-01-17T20:28:45.358Z,82.20
2023-01-17T20:31:14.389Z,82.40
2023-01-17T20:33:43.356Z,82.40
2023-01-17T20:36:13.031Z,82.40
2023-01-17T20:38:44.054Z,82.40
2023-01-17T20:41:14.724Z,82.70
2023-01-17T20:43:42.907Z,82.80
2023-01-17T20:46:11.031Z,83.10
2023-01-17T20:48:43.539Z,82.80
2023-01-17T20:51:12.265Z,83.10
2023-01-17T20:53:41.122Z,83.20
2023-01-17T20:56:12.211Z,83.20
2023-01-17T20:58:39.809Z,83.40
2023-01-17T21:01:09.813Z,83.00
2023-01-17T21:03:38.113Z,83.20
2023-01-17T21:06:05.735Z,82.80
2023-01-17T21:08:34.791Z,83.20
2023-01-17T21:11:02.975Z,83.10
2023-01-17T21:13:31.951Z,83.60
2023-01-17T21:15:59.502Z,83.30
2023-01-17T21:18:27.598Z,83.10
2023-01-17T21:20:55.157Z,82.90
2023-01-17T21:23:29.451Z,83.10
2023-01-17T21:25:57.706Z,82.90
2023-01-17T21:28:27.479Z,83.10
2023-01-17T21:30:56.330Z,82.90
2023-01-17T21:33:25.125Z,83.00
2023-01-17T21:35:54.016Z,83.10
2023-01-17T21:38:21.769Z,83.30
2023-01-17T21:40:49.329Z,83.10
2023-01-17T21:43:16.871Z,83.00
2023-01-17T21:45:44.405Z,83.30
2023-01-17T21:48:12.662Z,83.10
2023-01-17T21:50:40.143Z,83.00
2023-01-17T21:53:10.503Z,83.10
2023-01-17T21:55:56.731Z,83.00
2023-01-17T21:58:42.816Z,82.90
2023-01-17T22:01:21.923Z,83.00
2023-01-17T22:03:57.170Z,82.80
2023-01-17T22:06:26.028Z,83.00
2023-01-17T22:08:53.962Z,83.00
2023-01-17T22:11:22.872Z,83.00
2023-01-17T22:13:50.508Z,82.80
2023-01-17T22:16:19.122Z,82.90
2023-01-17T22:18:47.094Z,82.90
2023-01-17T22:21:20.008Z,83.20
2023-01-17T22:23:48.434Z,83.10
2023-01-17T22:26:17.133Z,83.20
2023-01-17T22:28:47.552Z,83.30
2023-01-17T22:31:17.216Z,83.10
2023-01-17T22:33:45.735Z,83.40
2023-01-17T22:36:14.169Z,83.40
2023-01-17T22:38:42.705Z,83.40
2023-01-17T22:41:19.357Z,83.20
2023-01-17T22:43:49.052Z,83.60
2023-01-17T22:46:18.823Z,83.00
2023-01-17T22:48:48.827Z,83.20
2023-01-17T22:51:18.448Z,83.00
2023-01-17T22:53:57.146Z,83.40
2023-01-17T22:56:27.282Z,83.40
2023-01-17T22:58:55.101Z,83.50
2023-01-17T23:01:28.443Z,83.60
2023-01-17T23:03:57.290Z,83.30
2023-01-17T23:06:42.814Z,83.30
2023-01-17T23:09:12.039Z,83.50
2023-01-17T23:11:44.485Z,83.40
2023-01-17T23:14:18.090Z,83.60
2023-01-17T23:17:04.872Z,83.70
2023-01-17T23:19:34.443Z,83.50
2023-01-17T23:22:21.116Z,83.70
2023-01-17T23:24:50.066Z,83.70
2023-01-17T23:27:37.948Z,83.50
2023-01-17T23:30:07.729Z,84.10
2023-01-17T23:32:35.266Z,83.90
2023-01-17T23:35:02.803Z,83.70
2023-01-17T23:37:51.058Z,83.70
2023-01-17T23:40:19.977Z,83.50
2023-01-17T23:43:05.942Z,83.70
2023-01-17T23:45:38.550Z,83.40
2023-01-17T23:48:09.692Z,83.60
2023-01-17T23:50:44.652Z,83.50
2023-01-17T23:53:16.193Z,83.80
2023-01-17T23:55:45.865Z,84.20
2023-01-17T23:58:14.015Z,84.30
